Time;durP1;ratioP1;P1;durP2;ratioP2;P2;SDS_P1;SDS_P2;PMS_P1;PMS_P2;Temp;Humidity;BMP_temperature;BMP_pressure;BME280_temperature;BME280_humidity;BME280_pressure;Samples;Min_cycle;Max_cycle;Signal;HPM_P1;HPM_P2
2024/01/30 00:01:43;;;;;;;11.10;7.87;;;10.40;99.90;;;;;;5057186;28;20179;-75
2024/01/30 00:04:09;;;;;;;9.63;7.60;;;10.40;99.90;;;;;;5112641;22;20211;-75
2024/01/30 00:06:35;;;;;;;10.65;8.85;;;10.40;99.90;;;;;;5073368;28;20206;-75
2024/01/30 00:09:00;;;;;;;11.07;8.03;;;10.40;99.90;;;;;;5089816;28;20621;-75
2024/01/30 00:11:26;;;;;;;13.63;9.47;;;10.30;99.90;;;;;;5090556;28;20183;-74
2024/01/30 00:13:52;;;;;;;11.30;9.00;;;10.30;99.90;;;;;;5090274;28;20211;-74
2024/01/30 00:16:23;;;;;;;10.30;9.30;;;10.30;99.90;;;;;;5073199;28;20593;-76
2024/01/30 00:18:50;;;;;;;10.27;8.65;;;10.30;99.90;;;;;;5082522;28;20184;-75
2024/01/30 00:21:16;;;;;;;10.20;7.88;;;10.30;99.90;;;;;;5073442;28;20190;-76
2024/01/30 00:23:42;;;;;;;9.70;7.97;;;10.20;99.90;;;;;;5064511;28;20193;-74
2024/01/30 00:26:07;;;;;;;9.53;7.80;;;10.20;99.90;;;;;;5073193;28;20589;-75
2024/01/30 00:28:33;;;;;;;9.67;7.83;;;10.20;99.90;;;;;;5099495;28;20279;-76
2024/01/30 00:30:59;;;;;;;9.33;8.13;;;10.20;99.90;;;;;;5090240;28;20555;-76
2024/01/30 00:33:24;;;;;;;11.43;7.67;;;10.20;99.90;;;;;;5066089;28;20604;-75
2024/01/30 00:35:50;;;;;;;11.17;8.67;;;10.20;99.90;;;;;;5065525;28;20249;-76
2024/01/30 00:38:16;;;;;;;10.97;9.03;;;10.20;99.90;;;;;;5082030;28;20957;-75
2024/01/30 00:40:42;;;;;;;10.97;8.70;;;10.10;99.90;;;;;;5093643;28;20188;-75
2024/01/30 00:43:07;;;;;;;15.10;9.83;;;10.10;99.90;;;;;;5073414;28;20248;-77
2024/01/30 00:45:33;;;;;;;11.07;9.47;;;10.10;99.90;;;;;;5070919;28;20880;-75
2024/01/30 00:47:59;;;;;;;9.38;8.27;;;10.10;99.90;;;;;;5070530;28;20614;-76
2024/01/30 00:50:25;;;;;;;9.53;7.40;;;10.10;99.90;;;;;;5090607;28;20652;-76
2024/01/30 00:52:50;;;;;;;9.80;8.73;;;10.10;99.90;;;;;;5091543;28;20439;-76
2024/01/30 00:55:16;;;;;;;14.27;9.00;;;10.10;99.90;;;;;;5090501;28;20990;-75
2024/01/30 00:57:42;;;;;;;8.60;7.90;;;10.00;99.90;;;;;;5093428;28;20179;-76
2024/01/30 01:00:09;;;;;;;12.27;8.30;;;10.10;99.90;;;;;;5074142;28;20645;-75
2024/01/30 01:02:39;;;;;;;9.73;8.32;;;10.00;99.90;;;;;;5089755;28;20590;-75
2024/01/30 01:05:05;;;;;;;10.23;9.07;;;10.10;99.90;;;;;;5055526;28;20222;-76
2024/01/30 01:07:31;;;;;;;11.13;9.32;;;10.00;99.90;;;;;;5051484;28;20168;-77
2024/01/30 01:09:57;;;;;;;7.80;7.00;;;10.00;99.90;;;;;;5090047;28;20539;-74
2024/01/30 01:12:22;;;;;;;9.47;7.20;;;10.00;99.90;;;;;;5072687;28;20183;-75
2024/01/30 01:14:48;;;;;;;11.97;8.30;;;10.00;99.90;;;;;;5039153;28;21227;-76
2024/01/30 01:17:14;;;;;;;10.80;7.90;;;10.00;99.90;;;;;;5093216;28;20677;-75
2024/01/30 01:19:39;;;;;;;11.17;7.60;;;10.10;99.90;;;;;;5090607;28;20175;-75
2024/01/30 01:22:05;;;;;;;8.03;6.73;;;10.00;99.90;;;;;;5072598;28;20513;-76
2024/01/30 01:24:32;;;;;;;12.20;9.20;;;10.10;99.90;;;;;;5090703;28;20226;-75
2024/01/30 01:26:58;;;;;;;10.82;7.93;;;10.10;99.90;;;;;;5088198;28;20348;-75
2024/01/30 01:29:28;;;;;;;9.35;6.82;;;10.10;99.90;;;;;;5075619;28;20633;-73
2024/01/30 01:31:55;;;;;;;14.95;7.80;;;10.10;99.90;;;;;;5090166;28;20648;-73
2024/01/30 01:34:24;;;;;;;11.98;7.45;;;10.10;99.90;;;;;;5090887;28;20215;-74
2024/01/30 01:36:51;;;;;;;10.50;7.80;;;10.10;99.90;;;;;;5094117;28;20185;-73
2024/01/30 01:39:17;;;;;;;11.07;8.35;;;10.10;99.90;;;;;;5094226;28;20621;-74
2024/01/30 01:41:43;;;;;;;9.13;7.70;;;10.10;99.90;;;;;;5104511;28;20537;-74
2024/01/30 01:44:09;;;;;;;11.23;7.20;;;10.20;99.90;;;;;;5079891;28;20209;-73
2024/01/30 01:46:35;;;;;;;10.10;8.25;;;10.20;99.90;;;;;;5098227;28;20278;-73
2024/01/30 01:49:02;;;;;;;7.70;6.90;;;10.20;99.90;;;;;;5075689;28;20720;-72
2024/01/30 01:51:30;;;;;;;9.98;7.40;;;10.20;99.90;;;;;;5094512;28;20172;-72
2024/01/30 01:53:58;;;;;;;12.25;8.20;;;10.20;99.90;;;;;;5083674;28;20211;-72
2024/01/30 01:56:25;;;;;;;10.80;7.97;;;10.20;99.90;;;;;;5093766;28;20172;-73
2024/01/30 01:58:54;;;;;;;10.35;8.20;;;10.20;99.90;;;;;;5093792;28;20797;-73
2024/01/30 02:01:21;;;;;;;12.07;8.60;;;10.20;99.90;;;;;;5094653;28;20229;-72
2024/01/30 02:03:47;;;;;;;9.63;7.32;;;10.20;99.90;;;;;;5093643;28;20240;-73
2024/01/30 02:06:14;;;;;;;11.07;8.55;;;10.20;99.90;;;;;;5106022;28;20213;-73
2024/01/30 02:08:40;;;;;;;12.13;9.38;;;10.20;99.90;;;;;;5095614;28;20393;-73
2024/01/30 02:11:06;;;;;;;9.43;7.57;;;10.20;99.90;;;;;;5059232;28;20283;-73
2024/01/30 02:13:32;;;;;;;8.40;7.60;;;10.20;99.90;;;;;;5094231;28;20203;-73
2024/01/30 02:15:57;;;;;;;12.07;8.70;;;10.20;99.90;;;;;;5093869;28;20626;-73
2024/01/30 02:18:23;;;;;;;9.53;7.40;;;10.20;99.90;;;;;;5093356;28;20171;-73
2024/01/30 02:20:53;;;;;;;10.50;6.80;;;10.20;99.90;;;;;;5090094;28;20179;-73
2024/01/30 02:23:20;;;;;;;9.73;8.25;;;10.20;99.90;;;;;;5093700;28;20284;-73
2024/01/30 02:25:46;;;;;;;13.23;8.85;;;10.20;99.90;;;;;;5093456;28;20211;-72
2024/01/30 02:28:15;;;;;;;11.20;7.60;;;10.20;99.90;;;;;;5091901;28;20205;-73
2024/01/30 02:30:43;;;;;;;8.63;7.70;;;10.20;99.90;;;;;;5070870;28;20195;-73
2024/01/30 02:33:08;;;;;;;8.18;7.38;;;10.20;99.90;;;;;;5067376;28;20223;-72
2024/01/30 02:35:35;;;;;;;8.77;7.87;;;10.20;99.90;;;;;;5093667;28;20192;-72
2024/01/30 02:38:00;;;;;;;8.02;6.72;;;10.20;99.90;;;;;;5092052;28;20270;-73
2024/01/30 02:40:26;;;;;;;12.63;6.60;;;10.20;99.90;;;;;;5109937;28;20258;-72
2024/01/30 02:42:55;;;;;;;8.90;8.07;;;10.20;99.90;;;;;;5086016;28;20175;-73
2024/01/30 02:45:21;;;;;;;8.60;7.75;;;10.20;99.90;;;;;;5093655;28;20620;-73
2024/01/30 02:47:47;;;;;;;8.97;7.53;;;10.20;99.90;;;;;;5092939;28;20176;-73
2024/01/30 02:50:14;;;;;;;11.23;6.83;;;10.20;99.90;;;;;;5093541;28;20172;-73
2024/01/30 02:52:39;;;;;;;13.43;7.97;;;10.10;99.90;;;;;;5075433;28;20187;-73
2024/01/30 02:55:06;;;;;;;11.63;9.30;;;10.20;99.90;;;;;;5093683;28;20240;-73
2024/01/30 02:57:31;;;;;;;10.30;8.88;;;10.10;99.90;;;;;;5078266;28;20218;-72
2024/01/30 02:59:57;;;;;;;11.37;8.33;;;10.10;99.90;;;;;;5066797;28;20203;-73
2024/01/30 03:02:23;;;;;;;7.53;6.80;;;10.10;99.90;;;;;;5058461;28;20305;-74
2024/01/30 03:04:48;;;;;;;8.67;6.90;;;10.20;99.90;;;;;;5057686;28;20221;-73
2024/01/30 03:07:14;;;;;;;9.53;7.57;;;10.20;99.90;;;;;;5075054;28;20210;-73
2024/01/30 03:09:42;;;;;;;10.20;8.17;;;10.20;99.90;;;;;;5091708;28;20201;-73
2024/01/30 03:12:08;;;;;;;11.35;7.13;;;10.20;99.90;;;;;;5093110;28;20178;-74
2024/01/30 03:14:34;;;;;;;11.53;8.00;;;10.20;99.90;;;;;;5091483;28;20298;-74
2024/01/30 03:16:59;;;;;;;8.63;6.97;;;10.20;99.90;;;;;;5092171;28;20737;-73
2024/01/30 03:19:25;;;;;;;10.27;8.60;;;10.20;99.90;;;;;;5092699;28;20168;-73
2024/01/30 03:21:51;;;;;;;8.23;7.43;;;10.20;99.90;;;;;;5085086;28;20187;-73
2024/01/30 03:24:17;;;;;;;10.13;8.30;;;10.20;99.90;;;;;;5059164;28;20199;-73
2024/01/30 03:26:43;;;;;;;8.80;7.57;;;10.20;99.90;;;;;;5092729;28;20188;-73
2024/01/30 03:29:09;;;;;;;14.32;7.88;;;10.20;99.90;;;;;;5061213;28;20724;-73
2024/01/30 03:31:35;;;;;;;9.33;7.80;;;10.20;99.90;;;;;;5097305;28;20176;-73
2024/01/30 03:34:01;;;;;;;8.80;7.03;;;10.20;99.90;;;;;;5078409;28;20663;-73
2024/01/30 03:36:27;;;;;;;8.30;7.10;;;10.20;99.90;;;;;;5061779;28;20589;-73
2024/01/30 03:38:53;;;;;;;8.40;7.50;;;10.20;99.90;;;;;;5093881;28;20205;-73
2024/01/30 03:41:18;;;;;;;12.43;7.90;;;10.20;99.90;;;;;;5083121;28;20238;-73
2024/01/30 03:43:44;;;;;;;8.67;7.73;;;10.20;99.90;;;;;;5083029;28;20202;-74
2024/01/30 03:46:11;;;;;;;7.40;6.27;;;10.20;99.90;;;;;;5094835;28;20181;-73
2024/01/30 03:48:37;;;;;;;8.07;5.65;;;10.10;99.90;;;;;;5078448;28;20617;-73
2024/01/30 03:51:03;;;;;;;7.67;6.80;;;10.10;99.90;;;;;;5093094;28;20615;-74
2024/01/30 03:53:29;;;;;;;8.80;7.60;;;10.10;99.90;;;;;;5105141;28;20691;-74
2024/01/30 03:55:58;;;;;;;11.80;7.30;;;10.10;99.90;;;;;;5093774;28;20618;-73
2024/01/30 03:58:23;;;;;;;13.37;9.00;;;10.10;99.90;;;;;;5111299;28;20179;-73
2024/01/30 04:00:49;;;;;;;10.73;7.57;;;10.00;99.90;;;;;;5093632;28;20175;-74
2024/01/30 04:03:15;;;;;;;7.87;6.40;;;10.10;99.90;;;;;;5061224;28;20232;-73
2024/01/30 04:05:41;;;;;;;12.35;9.10;;;10.10;99.90;;;;;;5093678;28;20699;-73
2024/01/30 04:08:07;;;;;;;10.07;8.10;;;10.00;99.90;;;;;;5076442;28;20202;-74
2024/01/30 04:10:34;;;;;;;9.27;7.85;;;10.00;99.90;;;;;;5093812;28;20202;-73
2024/01/30 04:13:00;;;;;;;9.63;7.13;;;10.00;99.90;;;;;;5100404;28;20215;-73
2024/01/30 04:15:27;;;;;;;11.38;8.18;;;10.00;99.90;;;;;;5056786;28;20852;-74
2024/01/30 04:17:53;;;;;;;9.73;7.35;;;10.00;99.90;;;;;;5082163;28;20261;-73
2024/01/30 04:20:19;;;;;;;8.70;7.67;;;10.00;99.90;;;;;;5088823;28;20275;-73
2024/01/30 04:22:45;;;;;;;7.83;7.03;;;10.00;99.90;;;;;;5091542;28;20583;-73
2024/01/30 04:25:12;;;;;;;8.65;7.57;;;10.00;99.90;;;;;;5091147;28;20533;-73
2024/01/30 04:27:38;;;;;;;9.05;6.72;;;10.00;99.90;;;;;;5072625;28;20207;-74
2024/01/30 04:30:04;;;;;;;7.10;6.40;;;10.00;99.90;;;;;;5091184;28;20652;-72
2024/01/30 04:32:30;;;;;;;7.28;6.55;;;9.90;99.90;;;;;;5073187;28;20190;-72
2024/01/30 04:34:56;;;;;;;9.20;7.07;;;9.90;99.90;;;;;;5072684;28;20187;-73
2024/01/30 04:37:22;;;;;;;6.97;6.10;;;9.90;99.90;;;;;;5090605;28;20180;-72
2024/01/30 04:39:47;;;;;;;8.03;6.37;;;9.90;99.90;;;;;;5072963;28;20266;-72
2024/01/30 04:42:13;;;;;;;10.47;7.27;;;9.90;99.90;;;;;;5073054;28;20566;-72
2024/01/30 04:44:39;;;;;;;8.70;6.77;;;9.80;99.90;;;;;;5055826;28;20673;-73
2024/01/30 04:47:05;;;;;;;7.87;6.20;;;9.80;99.90;;;;;;5088892;28;20560;-73
2024/01/30 04:49:32;;;;;;;8.50;6.53;;;9.80;99.90;;;;;;5090789;28;20179;-73
2024/01/30 04:51:58;;;;;;;11.30;6.70;;;9.80;99.90;;;;;;5072635;28;20168;-73
2024/01/30 04:54:24;;;;;;;7.00;6.15;;;9.80;99.90;;;;;;5082691;28;20256;-73
2024/01/30 04:56:50;;;;;;;9.60;6.70;;;9.80;99.90;;;;;;5089044;28;20172;-73
2024/01/30 04:59:15;;;;;;;9.10;8.20;;;9.70;99.90;;;;;;5089110;28;20771;-73
2024/01/30 05:01:41;;;;;;;10.57;6.50;;;9.70;99.90;;;;;;5084971;28;20214;-73
2024/01/30 05:04:11;;;;;;;9.70;7.17;;;9.70;99.90;;;;;;5091780;28;20577;-73
2024/01/30 05:06:36;;;;;;;9.13;6.85;;;9.60;99.90;;;;;;5060864;28;20273;-72
2024/01/30 05:09:04;;;;;;;9.70;7.33;;;9.60;99.90;;;;;;5090022;28;20650;-72
2024/01/30 05:11:30;;;;;;;7.22;6.28;;;9.60;99.90;;;;;;5090670;28;20971;-72
2024/01/30 05:13:56;;;;;;;12.05;8.25;;;9.60;99.90;;;;;;5090563;28;20602;-73
2024/01/30 05:16:22;;;;;;;7.60;6.73;;;9.60;99.90;;;;;;5106299;28;20167;-72
2024/01/30 05:18:48;;;;;;;11.53;7.93;;;9.60;99.90;;;;;;5088867;28;20205;-72
2024/01/30 05:21:13;;;;;;;11.50;8.70;;;9.60;99.90;;;;;;5106219;28;20178;-72
2024/01/30 05:23:41;;;;;;;8.93;6.30;;;9.60;99.90;;;;;;5085925;28;20215;-72
2024/01/30 05:26:08;;;;;;;10.18;7.20;;;9.60;99.90;;;;;;5090308;28;20671;-72
2024/01/30 05:28:33;;;;;;;8.57;6.60;;;9.50;99.90;;;;;;5088611;28;20708;-72
2024/01/30 05:30:59;;;;;;;8.50;6.43;;;9.50;99.90;;;;;;5091052;28;20183;-72
2024/01/30 05:33:25;;;;;;;8.13;7.20;;;9.60;99.90;;;;;;5091244;28;20211;-72
2024/01/30 05:35:54;;;;;;;9.37;7.23;;;9.50;99.90;;;;;;5090228;28;20195;-72
2024/01/30 05:38:20;;;;;;;10.50;7.38;;;9.50;99.90;;;;;;5089699;28;20512;-73
2024/01/30 05:40:45;;;;;;;8.67;6.27;;;9.50;99.90;;;;;;5095696;28;20182;-73
2024/01/30 05:43:11;;;;;;;10.77;8.27;;;9.60;99.90;;;;;;5088317;28;20597;-73
2024/01/30 05:45:37;;;;;;;10.93;7.53;;;9.50;99.90;;;;;;5072051;28;20683;-73
2024/01/30 05:48:03;;;;;;;8.73;6.83;;;9.50;99.90;;;;;;5089362;28;20586;-73
2024/01/30 05:50:29;;;;;;;9.00;7.72;;;9.50;99.90;;;;;;5088716;28;20191;-73
2024/01/30 05:52:55;;;;;;;7.22;6.25;;;9.50;99.90;;;;;;5090043;28;20259;-73
2024/01/30 05:55:21;;;;;;;10.67;7.60;;;9.50;99.90;;;;;;5090304;28;20282;-73
2024/01/30 05:57:46;;;;;;;9.63;7.30;;;9.50;99.90;;;;;;5084276;28;20198;-72
2024/01/30 06:00:12;;;;;;;10.63;7.07;;;9.50;99.90;;;;;;5080079;28;20175;-72
2024/01/30 06:02:38;;;;;;;7.72;6.32;;;9.50;99.90;;;;;;5058341;28;20179;-73
2024/01/30 06:05:04;;;;;;;8.93;7.90;;;9.50;99.90;;;;;;5088640;28;20686;-72
2024/01/30 06:07:30;;;;;;;9.45;7.75;;;9.50;99.90;;;;;;5079058;28;20180;-72
2024/01/30 06:09:56;;;;;;;9.10;7.27;;;9.40;99.90;;;;;;5083614;28;20270;-72
2024/01/30 06:12:21;;;;;;;7.53;6.30;;;9.40;99.90;;;;;;5071944;28;20218;-72
2024/01/30 06:14:47;;;;;;;9.23;7.13;;;9.40;99.90;;;;;;5090000;28;20653;-73
2024/01/30 06:17:13;;;;;;;9.43;7.73;;;9.40;99.90;;;;;;5078860;28;20180;-73
2024/01/30 06:19:39;;;;;;;9.00;8.10;;;9.40;99.90;;;;;;5088710;28;20179;-73
2024/01/30 06:22:05;;;;;;;10.83;7.53;;;9.40;99.90;;;;;;5101687;28;20225;-73
2024/01/30 06:24:31;;;;;;;8.53;6.33;;;9.30;99.90;;;;;;5075595;28;20636;-73
2024/01/30 06:26:57;;;;;;;8.37;6.87;;;9.40;99.90;;;;;;5074768;28;20580;-73
2024/01/30 06:29:24;;;;;;;10.20;8.00;;;9.40;99.90;;;;;;5075289;28;20611;-73
2024/01/30 06:31:50;;;;;;;7.68;6.45;;;9.30;99.90;;;;;;5097359;28;20175;-78
2024/01/30 06:34:16;;;;;;;10.20;7.30;;;9.40;99.90;;;;;;5088412;28;20219;-78
2024/01/30 06:36:42;;;;;;;9.63;7.72;;;9.40;99.90;;;;;;5074729;28;20592;-77
2024/01/30 06:39:08;;;;;;;8.77;7.87;;;9.40;99.90;;;;;;5102318;28;20168;-78
2024/01/30 06:41:34;;;;;;;10.77;7.13;;;9.40;99.90;;;;;;5103588;28;20182;-78
2024/01/30 06:44:03;;;;;;;8.80;7.00;;;9.40;99.90;;;;;;5112376;28;20657;-77
2024/01/30 06:46:29;;;;;;;9.60;7.32;;;9.50;99.90;;;;;;5096617;28;20182;-77
2024/01/30 06:48:55;;;;;;;10.33;7.00;;;9.50;99.90;;;;;;5107553;28;20178;-78
2024/01/30 06:51:21;;;;;;;9.13;6.70;;;9.50;99.90;;;;;;5101187;28;20637;-77
2024/01/30 06:53:46;;;;;;;7.70;7.00;;;9.50;99.90;;;;;;5095053;28;20231;-77
2024/01/30 06:56:12;;;;;;;8.77;7.20;;;9.60;99.90;;;;;;5100980;28;20255;-78
2024/01/30 06:58:38;;;;;;;12.60;7.77;;;9.60;99.90;;;;;;5067863;28;20178;-78
2024/01/30 07:01:04;;;;;;;7.20;6.50;;;9.60;99.90;;;;;;5096556;28;20734;-78
2024/01/30 07:03:30;;;;;;;8.10;7.30;;;9.60;99.90;;;;;;5093392;28;20179;-77
2024/01/30 07:05:55;;;;;;;13.47;8.10;;;9.60;99.90;;;;;;5078049;28;20634;-78
2024/01/30 07:08:22;;;;;;;10.60;7.80;;;9.60;99.90;;;;;;5092316;28;20172;-77
2024/01/30 07:10:48;;;;;;;7.38;6.57;;;9.70;99.90;;;;;;5075823;28;20234;-77
2024/01/30 07:13:16;;;;;;;9.67;7.60;;;9.70;99.90;;;;;;5093301;28;20627;-77
2024/01/30 07:15:42;;;;;;;9.30;8.32;;;9.70;99.90;;;;;;5091178;28;20274;-77
2024/01/30 07:18:09;;;;;;;9.43;6.65;;;9.70;99.90;;;;;;5092656;28;20175;-77
2024/01/30 07:20:35;;;;;;;8.52;7.55;;;9.70;99.90;;;;;;5106747;28;20198;-77
2024/01/30 07:23:02;;;;;;;11.13;7.30;;;9.70;99.90;;;;;;5113016;28;20278;-77
2024/01/30 07:25:29;;;;;;;9.48;7.78;;;9.80;99.90;;;;;;5109917;28;20248;-77
2024/01/30 07:27:58;;;;;;;7.18;6.28;;;9.80;99.90;;;;;;5121376;28;20190;-77
2024/01/30 07:30:24;;;;;;;8.23;6.90;;;9.80;99.90;;;;;;5087114;28;20600;-78
2024/01/30 07:32:49;;;;;;;9.03;8.13;;;9.80;99.90;;;;;;5073777;28;20203;-77
2024/01/30 07:35:15;;;;;;;12.17;7.57;;;9.80;99.90;;;;;;5074738;28;20715;-77
2024/01/30 07:37:41;;;;;;;8.27;6.97;;;9.90;99.90;;;;;;5092040;28;20633;-78
2024/01/30 07:40:07;;;;;;;9.07;7.07;;;9.80;99.90;;;;;;5073314;28;20599;-77
2024/01/30 07:42:33;;;;;;;9.23;6.63;;;9.90;99.90;;;;;;5083706;28;20176;-78
2024/01/30 07:45:00;;;;;;;7.93;6.43;;;9.90;99.90;;;;;;5090886;28;20683;-76
2024/01/30 07:47:26;;;;;;;10.63;7.32;;;9.90;99.90;;;;;;5089856;28;20180;-76
2024/01/30 07:49:54;;;;;;;9.93;7.80;;;9.90;99.90;;;;;;5090698;28;20636;-76
2024/01/30 07:52:19;;;;;;;8.50;6.78;;;9.90;99.90;;;;;;5092180;28;20180;-75
2024/01/30 07:54:45;;;;;;;10.40;7.30;;;9.90;99.90;;;;;;5090595;28;20207;-76
2024/01/30 07:57:11;;;;;;;8.63;7.17;;;10.00;99.90;;;;;;5073011;28;20171;-76
2024/01/30 07:59:38;;;;;;;9.80;6.90;;;10.00;99.90;;;;;;5090492;28;20536;-76
2024/01/30 08:02:04;;;;;;;8.73;6.77;;;10.00;99.90;;;;;;5090657;28;20210;-75
2024/01/30 08:04:29;;;;;;;11.60;8.77;;;10.10;99.90;;;;;;5090126;28;20234;-75
2024/01/30 08:06:55;;;;;;;8.00;7.30;;;10.10;99.90;;;;;;5059782;28;20690;-75
2024/01/30 08:09:21;;;;;;;10.43;8.10;;;10.20;99.90;;;;;;5073603;28;20682;-75
2024/01/30 08:11:48;;;;;;;9.67;7.50;;;10.20;99.90;;;;;;5073688;28;20218;-75
2024/01/30 08:14:14;;;;;;;8.48;6.50;;;10.30;99.90;;;;;;5091911;28;20209;-76
2024/01/30 08:16:40;;;;;;;9.05;7.50;;;10.20;99.90;;;;;;5093766;28;20202;-76
2024/01/30 08:19:05;;;;;;;11.47;7.03;;;10.30;99.90;;;;;;5092970;28;20197;-75
2024/01/30 08:21:36;;;;;;;9.27;7.90;;;10.30;99.90;;;;;;5111653;28;20209;-75
2024/01/30 08:24:04;;;;;;;8.43;6.75;;;10.20;99.90;;;;;;5076711;28;20289;-76
2024/01/30 08:26:30;;;;;;;11.00;8.15;;;10.30;99.90;;;;;;5124312;22;20606;-75
2024/01/30 08:28:56;;;;;;;9.02;7.28;;;10.30;99.90;;;;;;5095687;28;20175;-73
2024/01/30 08:31:22;;;;;;;10.20;7.30;;;10.30;99.90;;;;;;5092803;28;20904;-73
2024/01/30 08:33:47;;;;;;;7.80;6.80;;;10.30;99.90;;;;;;5076394;28;20215;-73
2024/01/30 08:36:13;;;;;;;8.20;7.20;;;10.40;99.90;;;;;;5087957;28;20609;-74
2024/01/30 08:38:39;;;;;;;10.10;7.07;;;10.40;99.90;;;;;;5087576;28;20309;-74
2024/01/30 08:41:05;;;;;;;12.23;8.37;;;10.40;99.90;;;;;;5072336;28;20228;-74
2024/01/30 08:43:30;;;;;;;11.87;7.10;;;10.40;99.90;;;;;;5073201;28;20175;-74
2024/01/30 08:45:59;;;;;;;9.03;6.93;;;10.40;99.90;;;;;;5089701;28;20601;-74
2024/01/30 08:48:25;;;;;;;7.78;6.93;;;10.40;99.90;;;;;;5088861;28;20176;-74
2024/01/30 08:50:51;;;;;;;9.10;6.10;;;10.50;99.90;;;;;;5101364;28;20674;-74
2024/01/30 08:53:17;;;;;;;8.30;6.43;;;10.60;99.90;;;;;;5074217;28;20727;-73
2024/01/30 08:55:42;;;;;;;8.30;6.80;;;10.70;99.90;;;;;;5057920;28;20606;-74
2024/01/30 08:58:08;;;;;;;11.13;7.90;;;10.70;99.90;;;;;;5088903;28;20229;-74
2024/01/30 09:00:34;;;;;;;8.13;6.70;;;10.80;99.90;;;;;;5088339;28;20199;-74
2024/01/30 09:02:59;;;;;;;10.87;7.47;;;10.90;99.90;;;;;;5091120;28;20205;-74
2024/01/30 09:05:25;;;;;;;7.63;6.80;;;11.00;99.90;;;;;;5089263;28;20695;-73
2024/01/30 09:07:51;;;;;;;9.30;6.30;;;11.00;99.90;;;;;;5089074;28;20515;-73
2024/01/30 09:10:16;;;;;;;10.47;7.57;;;11.10;99.90;;;;;;5088808;28;20526;-73
2024/01/30 09:12:42;;;;;;;10.57;7.27;;;11.20;99.90;;;;;;5090599;28;20183;-74
2024/01/30 09:15:08;;;;;;;8.10;6.37;;;11.20;99.90;;;;;;5090545;28;20175;-74
2024/01/30 09:17:34;;;;;;;12.75;7.70;;;11.30;99.90;;;;;;5090137;28;20684;-74
2024/01/30 09:20:00;;;;;;;7.00;6.20;;;11.40;99.90;;;;;;5090601;28;20167;-74
2024/01/30 09:22:26;;;;;;;9.07;7.82;;;11.50;99.90;;;;;;5090270;28;20542;-74
2024/01/30 09:24:52;;;;;;;9.23;6.30;;;11.60;99.90;;;;;;5104203;28;20183;-74
2024/01/30 09:27:17;;;;;;;11.40;7.23;;;11.70;99.90;;;;;;5092049;28;20187;-74
2024/01/30 09:29:43;;;;;;;10.20;6.70;;;11.80;99.90;;;;;;5091443;28;20692;-73
2024/01/30 09:32:09;;;;;;;11.97;7.50;;;11.90;99.90;;;;;;5098941;28;20171;-74
2024/01/30 09:34:35;;;;;;;7.47;6.60;;;12.00;99.90;;;;;;5090589;28;20195;-73
2024/01/30 09:37:01;;;;;;;6.80;5.73;;;12.10;99.90;;;;;;5076672;28;20262;-74
2024/01/30 09:39:27;;;;;;;7.07;6.33;;;12.20;99.90;;;;;;5080424;28;20574;-73
2024/01/30 09:42:32;;;;;;;7.47;6.03;;;12.30;99.90;;;;;;5072231;28;20240;-74
2024/01/30 09:44:58;;;;;;;7.30;6.15;;;12.40;99.90;;;;;;5052334;28;20602;-74
2024/01/30 09:47:24;;;;;;;8.40;6.37;;;12.50;99.90;;;;;;5088666;28;20183;-75
2024/01/30 09:49:51;;;;;;;7.70;6.90;;;12.60;99.90;;;;;;5074776;28;20266;-74
2024/01/30 09:52:16;;;;;;;9.38;7.65;;;12.60;99.90;;;;;;5090588;28;21222;-74
2024/01/30 09:54:43;;;;;;;7.50;6.03;;;12.70;99.90;;;;;;5089480;28;20243;-73
2024/01/30 09:57:09;;;;;;;9.07;6.70;;;12.70;99.90;;;;;;5089069;28;20580;-74
2024/01/30 09:59:35;;;;;;;11.43;7.80;;;12.70;99.90;;;;;;5056276;28;20573;-74
2024/01/30 10:02:04;;;;;;;8.57;7.20;;;12.80;99.90;;;;;;5094692;28;20577;-73
2024/01/30 10:04:30;;;;;;;10.47;7.80;;;12.80;99.90;;;;;;5094569;28;20560;-73
2024/01/30 10:06:56;;;;;;;10.80;7.00;;;12.80;99.90;;;;;;5076137;28;20671;-74
2024/01/30 10:09:22;;;;;;;6.80;5.97;;;12.90;99.90;;;;;;5094358;28;20585;-73
2024/01/30 10:11:48;;;;;;;10.20;7.53;;;13.00;99.90;;;;;;5093114;28;21223;-75
2024/01/30 10:14:15;;;;;;;10.80;7.10;;;13.10;99.90;;;;;;5076014;28;20225;-73
2024/01/30 10:16:41;;;;;;;8.63;6.30;;;13.20;99.90;;;;;;5093928;28;20640;-73
2024/01/30 10:19:06;;;;;;;7.77;6.97;;;13.30;99.90;;;;;;5093105;28;20581;-75
2024/01/30 10:21:32;;;;;;;9.97;6.67;;;13.30;99.90;;;;;;5084820;28;20225;-74
2024/01/30 10:23:58;;;;;;;7.77;6.97;;;13.50;99.90;;;;;;5076187;28;20175;-74
2024/01/30 10:26:23;;;;;;;8.00;7.10;;;13.60;99.90;;;;;;5075543;28;20711;-75
2024/01/30 10:28:49;;;;;;;9.43;7.00;;;13.70;99.90;;;;;;5076192;28;20605;-74
2024/01/30 10:31:18;;;;;;;12.67;7.27;;;13.80;99.90;;;;;;5065632;28;20305;-75
2024/01/30 10:33:44;;;;;;;7.17;5.77;;;13.80;99.90;;;;;;5083047;28;20683;-73
2024/01/30 10:36:13;;;;;;;8.50;7.47;;;13.70;99.90;;;;;;5102436;28;20617;-74
2024/01/30 10:38:42;;;;;;;9.13;7.40;;;13.60;99.90;;;;;;5101897;28;20643;-73
2024/01/30 10:41:13;;;;;;;8.53;6.40;;;13.50;99.90;;;;;;5093837;28;20588;-73
2024/01/30 10:43:42;;;;;;;8.37;6.50;;;13.50;99.90;;;;;;5059568;28;20610;-73
2024/01/30 10:46:19;;;;;;;9.20;7.90;;;13.40;99.90;;;;;;5093706;28;20641;-73
2024/01/30 10:48:50;;;;;;;12.10;7.10;;;13.40;99.90;;;;;;5086487;28;20581;-72
2024/01/30 10:51:18;;;;;;;10.10;7.27;;;13.40;99.90;;;;;;5075485;28;20615;-72
2024/01/30 10:53:46;;;;;;;10.17;8.30;;;13.50;99.90;;;;;;5075536;28;20724;-73
2024/01/30 10:56:13;;;;;;;9.80;8.20;;;13.60;99.90;;;;;;5093364;28;21193;-73
2024/01/30 10:58:39;;;;;;;8.70;6.67;;;13.60;99.90;;;;;;5100423;28;20600;-74
2024/01/30 11:01:07;;;;;;;8.70;7.17;;;13.60;99.90;;;;;;5087670;28;20578;-73
2024/01/30 11:03:36;;;;;;;9.90;8.40;;;13.60;99.90;;;;;;5109488;28;20554;-73
2024/01/30 11:06:03;;;;;;;7.50;6.40;;;13.60;99.90;;;;;;5075049;28;20621;-73
2024/01/30 11:08:31;;;;;;;8.63;6.87;;;13.70;99.90;;;;;;5093152;28;20580;-73
2024/01/30 11:10:58;;;;;;;7.73;6.17;;;13.70;99.90;;;;;;5093461;28;20658;-74
2024/01/30 11:13:30;;;;;;;10.02;7.38;;;13.70;99.90;;;;;;5093435;28;20625;-75
2024/01/30 11:16:01;;;;;;;10.20;7.80;;;13.70;99.90;;;;;;5100351;28;20195;-74
2024/01/30 11:18:30;;;;;;;7.00;6.13;;;13.70;99.90;;;;;;5090334;28;20570;-74
2024/01/30 11:20:58;;;;;;;10.00;6.20;;;13.70;99.90;;;;;;5108499;28;20631;-74
2024/01/30 11:23:23;;;;;;;10.53;7.90;;;13.80;99.90;;;;;;5092986;28;20550;-73
2024/01/30 11:25:51;;;;;;;7.40;5.30;;;13.80;99.90;;;;;;5092718;28;20733;-73
2024/01/30 11:28:18;;;;;;;14.47;7.03;;;13.80;99.90;;;;;;5092646;28;20214;-74
2024/01/30 11:30:44;;;;;;;8.97;7.07;;;13.80;99.90;;;;;;5092897;28;20669;-74
2024/01/30 11:33:14;;;;;;;7.70;6.40;;;13.90;99.90;;;;;;5091719;28;20724;-73
2024/01/30 11:35:42;;;;;;;7.27;5.97;;;13.90;99.90;;;;;;5091495;28;21293;-74
2024/01/30 11:38:09;;;;;;;9.73;7.23;;;14.00;99.90;;;;;;5092581;28;20573;-73
2024/01/30 11:40:37;;;;;;;13.17;8.70;;;14.10;99.90;;;;;;5099779;28;20680;-74
2024/01/30 11:43:05;;;;;;;9.40;7.50;;;14.10;99.90;;;;;;5092561;28;20582;-74
2024/01/30 11:45:31;;;;;;;8.73;5.90;;;14.20;99.90;;;;;;5074498;28;21024;-74
2024/01/30 11:48:00;;;;;;;8.57;7.43;;;14.30;99.90;;;;;;5092442;28;20565;-73
2024/01/30 11:50:26;;;;;;;10.17;6.73;;;14.40;99.90;;;;;;5090889;28;20738;-74
2024/01/30 11:52:54;;;;;;;9.00;6.90;;;14.50;99.90;;;;;;5092091;28;20569;-74
2024/01/30 11:55:21;;;;;;;19.87;8.10;;;14.50;99.90;;;;;;5069280;28;20199;-74
2024/01/30 11:57:47;;;;;;;7.80;6.87;;;14.60;99.90;;;;;;5082325;28;20588;-74
2024/01/30 12:00:20;;;;;;;9.97;8.60;;;14.70;99.90;;;;;;5077609;28;20290;-74
2024/01/30 12:02:55;;;;;;;9.17;6.80;;;14.70;99.90;;;;;;5081169;28;20188;-74
2024/01/30 12:05:28;;;;;;;8.57;6.53;;;14.80;99.90;;;;;;5082485;28;20639;-74
2024/01/30 12:07:54;;;;;;;9.40;6.83;;;14.80;99.90;;;;;;5091875;28;20578;-74
2024/01/30 12:10:21;;;;;;;8.63;5.93;;;14.90;99.90;;;;;;5091855;28;20584;-74
2024/01/30 12:16:34;;;;;;;7.70;5.80;;;15.00;99.90;;;;;;5093949;28;20621;-74
2024/01/30 12:19:01;;;;;;;8.77;6.70;;;15.10;99.90;;;;;;5081507;28;20725;-74
2024/01/30 12:21:28;;;;;;;9.33;7.60;;;15.20;99.90;;;;;;5101098;28;20174;-74
2024/01/30 12:23:54;;;;;;;7.30;5.77;;;15.20;99.90;;;;;;5087075;28;20585;-74
2024/01/30 12:26:20;;;;;;;9.30;6.73;;;15.20;99.90;;;;;;5093907;28;20641;-74
2024/01/30 12:28:52;;;;;;;11.90;8.40;;;15.20;99.90;;;;;;5091913;28;20627;-74
2024/01/30 12:31:17;;;;;;;13.23;8.20;;;15.10;99.90;;;;;;5078516;28;20585;-74
2024/01/30 12:33:43;;;;;;;10.97;8.07;;;15.10;99.90;;;;;;5090079;28;20625;-74
2024/01/30 12:36:09;;;;;;;13.70;6.47;;;15.10;99.90;;;;;;5080685;28;20193;-75
2024/01/30 12:38:35;;;;;;;9.97;7.07;;;15.10;99.90;;;;;;5092169;28;20172;-75
2024/01/30 12:41:00;;;;;;;8.30;7.17;;;15.10;99.90;;;;;;5079319;28;20587;-75
2024/01/30 12:43:27;;;;;;;8.70;6.90;;;15.20;99.90;;;;;;5100513;28;20244;-75
2024/01/30 12:45:53;;;;;;;6.90;6.13;;;15.20;99.90;;;;;;5073401;28;20610;-74